Time;durP1;ratioP1;P1;durP2;ratioP2;P2;SDS_P1;SDS_P2;PMS_P1;PMS_P2;Temp;Humidity;BMP_temperature;BMP_pressure;BME280_temperature;BME280_humidity;BME280_pressure;Samples;Min_cycle;Max_cycle;Signal;HPM_P1;HPM_P2
2023/05/24 00:02:05;;;;;;;;;33.50;30.75;;;;;17.72;89.26;99123.00;5101888;27;45309;-80
2023/05/24 00:04:31;;;;;;;;;31.25;28.75;;;;;17.69;88.16;99123.22;5101853;27;45540;-80
2023/05/24 00:06:57;;;;;;;;;29.75;27.25;;;;;17.66;88.98;99134.09;5094603;27;45730;-80
2023/05/24 00:09:22;;;;;;;;;30.75;29.50;;;;;17.64;88.48;99133.34;5095496;27;45434;-80
2023/05/24 00:11:48;;;;;;;;;31.25;30.00;;;;;17.64;87.93;99131.53;5115598;27;45404;-80
2023/05/24 00:14:13;;;;;;;;;32.50;30.25;;;;;17.66;87.75;99131.41;5101941;27;45560;-81
2023/05/24 00:16:39;;;;;;;;;35.25;31.25;;;;;17.67;87.50;99131.31;5101754;27;45366;-80
2023/05/24 00:19:04;;;;;;;;;29.00;26.75;;;;;17.67;87.44;99139.31;5101850;27;45410;-80
2023/05/24 00:21:30;;;;;;;;;33.00;30.33;;;;;17.68;88.51;99133.03;5108502;27;45305;-80
2023/05/24 00:23:56;;;;;;;;;28.50;27.75;;;;;17.70;87.43;99135.59;5104240;27;45474;-81
2023/05/24 00:26:22;;;;;;;;;30.75;27.25;;;;;17.70;86.99;99127.59;5101974;27;45647;-81
2023/05/24 00:28:47;;;;;;;;;29.00;27.75;;;;;17.72;87.26;99131.88;5101830;27;45412;-81
2023/05/24 00:31:12;;;;;;;;;26.25;24.75;;;;;17.72;86.79;99134.53;5109222;27;45325;-80
2023/05/24 00:33:38;;;;;;;;;30.50;28.75;;;;;17.72;86.26;99125.69;5108333;27;45475;-80
2023/05/24 00:36:03;;;;;;;;;30.50;26.75;;;;;17.69;86.81;99129.41;5099905;27;46939;-80
2023/05/24 00:38:29;;;;;;;;;30.50;29.75;;;;;17.68;87.35;99125.03;5102675;27;45473;-80
2023/05/24 00:40:59;;;;;;;;;26.75;26.75;;;;;17.66;87.37;99126.09;5095396;27;45424;-81
2023/05/24 00:43:25;;;;;;;;;28.25;26.25;;;;;17.60;87.45;99122.00;5108596;27;45364;-81
2023/05/24 00:46:04;;;;;;;;;34.00;31.75;;;;;17.61;87.78;99130.84;5101305;27;45567;-81
2023/05/24 00:48:30;;;;;;;;;25.75;24.50;;;;;17.57;87.50;99126.69;5102090;27;45441;-81
2023/05/24 00:50:56;;;;;;;;;32.75;29.50;;;;;17.54;87.24;99121.56;5106949;27;45377;-80
2023/05/24 00:53:21;;;;;;;;;24.50;24.00;;;;;17.53;87.16;99115.38;5107979;27;45441;-80
2023/05/24 00:55:47;;;;;;;;;30.50;28.25;;;;;17.53;87.14;99112.72;5094552;27;45475;-81
2023/05/24 00:58:13;;;;;;;;;18.50;18.50;;;;;17.54;87.74;99114.44;5109113;27;45391;-80
2023/05/24 01:00:40;;;;;;;;;30.50;25.75;;;;;17.54;87.02;99111.78;5115501;27;45360;-80
2023/05/24 01:03:06;;;;;;;;;35.00;28.75;;;;;17.51;86.83;99105.78;5114040;27;45556;-80
2023/05/24 01:05:32;;;;;;;;;26.75;26.75;;;;;17.48;87.25;99113.97;5115128;27;45393;-80
2023/05/24 01:08:08;;;;;;;;;28.00;25.25;;;;;17.46;87.38;99116.75;5103938;27;45554;-80
2023/05/24 01:10:44;;;;;;;;;22.50;21.25;;;;;17.47;87.41;99118.47;5108956;27;45309;-80
2023/05/24 01:13:46;;;;;;;;;23.00;22.00;;;;;17.45;87.26;99117.72;5112245;27;45537;-80
2023/05/24 01:16:17;;;;;;;;;25.75;24.50;;;;;17.46;87.15;99119.41;5112876;27;47728;-80
2023/05/24 01:18:51;;;;;;;;;28.00;26.50;;;;;17.43;87.22;99114.28;5108634;27;45437;-80
2023/05/24 01:21:50;;;;;;;;;23.75;23.00;;;;;17.39;87.06;99116.34;5112278;27;45346;-80
2023/05/24 01:24:52;;;;;;;;;29.00;28.75;;;;;17.38;86.64;99124.44;5113592;27;45640;-81
2023/05/24 01:27:21;;;;;;;;;24.25;23.75;;;;;17.34;86.90;99123.78;5117731;27;45783;-80
2023/05/24 01:29:52;;;;;;;;;25.25;21.00;;;;;17.32;86.63;99128.34;5105153;27;45497;-80
2023/05/24 01:32:18;;;;;;;;;27.50;25.50;;;;;17.29;86.73;99125.03;5104674;27;45435;-80
2023/05/24 01:34:43;;;;;;;;;24.75;23.25;;;;;17.25;86.96;99124.41;5110832;27;45512;-80
2023/05/24 01:37:08;;;;;;;;;29.75;25.00;;;;;17.26;86.73;99122.59;5097642;27;46543;-80
2023/05/24 01:39:34;;;;;;;;;27.50;24.50;;;;;17.24;87.17;99122.72;5105902;27;45473;-80
2023/05/24 01:42:37;;;;;;;;;24.50;23.75;;;;;17.26;87.09;99125.28;5117363;27;45385;-80
2023/05/24 01:45:38;;;;;;;;;31.00;24.25;;;;;17.26;87.52;99131.41;5110432;27;45701;-80
2023/05/24 01:48:26;;;;;;;;;31.50;26.50;;;;;17.23;87.70;99131.66;5097582;27;46525;-80
2023/05/24 01:50:56;;;;;;;;;28.25;25.75;;;;;17.23;87.40;99131.66;5105591;27;45409;-80
2023/05/24 01:53:27;;;;;;;;;26.50;24.75;;;;;17.23;86.45;99122.81;5103050;27;45379;-81
2023/05/24 01:55:55;;;;;;;;;25.50;24.50;;;;;17.20;86.60;99117.69;5105322;27;45447;-80
2023/05/24 01:58:24;;;;;;;;;23.00;21.75;;;;;17.20;86.59;99123.00;5115970;27;46443;-80
2023/05/24 02:00:50;;;;;;;;;29.50;26.50;;;;;17.19;86.40;99121.31;5105492;27;45337;-80
2023/05/24 02:03:16;;;;;;;;;27.00;25.50;;;;;17.20;86.48;99120.34;5101887;27;45531;-80
2023/05/24 02:05:43;;;;;;;;;22.00;20.25;;;;;17.22;86.56;99118.44;5106915;27;45578;-80
2023/05/24 02:08:09;;;;;;;;;23.75;23.50;;;;;17.24;86.14;99114.72;5104132;27;46230;-80
2023/05/24 02:10:37;;;;;;;;;29.75;25.25;;;;;17.28;86.42;99118.84;5108655;27;45690;-80
2023/05/24 02:13:02;;;;;;;;;26.00;25.00;;;;;17.34;86.45;99115.78;5097239;27;45299;-79
2023/05/24 02:15:29;;;;;;;;;29.75;24.50;;;;;17.38;85.18;99101.31;5106160;27;45667;-80
2023/05/24 02:17:54;;;;;;;;;24.50;21.50;;;;;17.42;85.36;99100.16;5102703;27;45530;-80
2023/05/24 02:20:21;;;;;;;;;22.50;22.25;;;;;17.44;85.63;99095.53;5116020;27;45470;-80
2023/05/24 02:22:47;;;;;;;;;25.00;20.25;;;;;17.47;86.33;99099.81;5114496;27;45446;-80
2023/05/24 02:25:13;;;;;;;;;21.50;20.00;;;;;17.49;85.99;99095.22;5097055;27;45425;-80
2023/05/24 02:27:38;;;;;;;;;17.00;16.00;;;;;17.48;85.71;99090.00;5110970;27;45429;-80
2023/05/24 02:30:05;;;;;;;;;24.25;24.00;;;;;17.42;85.49;99088.63;5106505;27;45460;-80
2023/05/24 02:32:31;;;;;;;;;26.00;22.75;;;;;17.37;85.47;99086.28;5102235;27;45396;-80
2023/05/24 02:34:58;;;;;;;;;23.50;21.50;;;;;17.31;86.12;99081.34;5106755;27;45451;-80
2023/05/24 02:37:24;;;;;;;;;15.50;14.25;;;;;17.26;86.13;99086.13;5111210;27;46113;-80
2023/05/24 02:39:49;;;;;;;;;25.00;21.25;;;;;17.21;85.69;99088.28;5095413;27;45568;-80
2023/05/24 02:42:15;;;;;;;;;25.50;25.00;;;;;17.19;85.77;99090.19;5097190;27;45444;-81
2023/05/24 02:44:41;;;;;;;;;21.25;21.25;;;;;17.18;86.64;99077.81;5107298;27;45347;-80
2023/05/24 02:47:07;;;;;;;;;23.00;21.00;;;;;17.21;86.49;99080.28;5114091;27;46158;-80
2023/05/24 02:49:32;;;;;;;;;27.00;24.00;;;;;17.22;86.56;99068.66;5106997;27;45457;-80
2023/05/24 02:51:58;;;;;;;;;24.00;23.00;;;;;17.27;86.36;99071.00;5116113;27;45387;-80
2023/05/24 02:54:24;;;;;;;;;21.50;21.25;;;;;17.28;85.97;99067.38;5106746;27;45439;-81
2023/05/24 02:56:50;;;;;;;;;24.00;23.50;;;;;17.29;86.10;99069.94;5110124;27;46316;-80
2023/05/24 02:59:16;;;;;;;;;23.20;22.60;;;;;17.29;86.00;99064.59;5105169;27;45503;-81
2023/05/24 03:01:41;;;;;;;;;23.75;22.25;;;;;17.29;85.98;99067.28;5113842;27;45221;-80
2023/05/24 03:04:07;;;;;;;;;22.00;22.00;;;;;17.30;85.95;99070.78;5096423;27;45310;-80
2023/05/24 03:06:32;;;;;;;;;27.00;24.25;;;;;17.28;86.18;99060.22;5108774;27;45827;-80
2023/05/24 03:08:58;;;;;;;;;26.25;23.50;;;;;17.29;86.09;99066.41;5105061;27;45414;-80
2023/05/24 03:11:23;;;;;;;;;25.50;24.25;;;;;17.28;85.75;99062.91;5102649;27;45358;-80
2023/05/24 03:13:48;;;;;;;;;27.50;22.75;;;;;17.27;86.06;99065.66;5115530;27;45565;-81
2023/05/24 03:16:15;;;;;;;;;20.75;20.50;;;;;17.25;86.29;99056.94;5113814;27;45738;-80
2023/05/24 03:18:41;;;;;;;;;25.75;24.00;;;;;17.21;86.48;99056.28;5105002;27;45527;-80
2023/05/24 03:21:06;;;;;;;;;26.50;24.25;;;;;17.22;86.33;99062.47;5114118;27;45437;-81
2023/05/24 03:23:32;;;;;;;;;26.25;25.00;;;;;17.22;86.84;99059.81;5096176;27;45411;-81
2023/05/24 03:25:57;;;;;;;;;27.50;25.50;;;;;17.24;86.47;99058.75;5109780;27;45576;-81
2023/05/24 03:28:23;;;;;;;;;26.25;22.75;;;;;17.25;86.35;99049.81;5104959;27;45411;-81
2023/05/24 03:30:48;;;;;;;;;27.50;25.75;;;;;17.26;86.25;99054.16;5101279;27;45397;-80
2023/05/24 03:33:14;;;;;;;;;25.75;23.25;;;;;17.22;86.57;99060.66;5115876;27;45540;-80
2023/05/24 03:35:39;;;;;;;;;26.75;21.00;;;;;17.18;86.46;99059.16;5113547;27;45576;-81
2023/05/24 03:38:05;;;;;;;;;27.25;25.00;;;;;17.17;86.19;99059.28;5105000;27;45376;-81
2023/05/24 03:40:32;;;;;;;;;24.25;24.25;;;;;17.16;85.94;99065.56;5103314;27;45478;-80
2023/05/24 03:42:58;;;;;;;;;25.50;24.00;;;;;17.16;86.54;99068.22;5088198;27;45336;-80
2023/05/24 03:45:24;;;;;;;;;27.00;23.75;;;;;17.14;86.63;99070.13;5109299;27;45432;-80
2023/05/24 03:47:50;;;;;;;;;23.00;20.25;;;;;17.13;86.88;99065.75;5087219;27;45444;-81
2023/05/24 03:50:15;;;;;;;;;25.25;20.75;;;;;17.12;86.66;99080.03;5113467;27;45421;-80
2023/05/24 03:52:41;;;;;;;;;23.50;23.50;;;;;17.10;86.83;99075.66;5095532;27;45550;-80
2023/05/24 03:55:07;;;;;;;;;27.50;24.00;;;;;17.09;86.95;99075.78;5108144;27;47527;-80
2023/05/24 03:57:32;;;;;;;;;26.00;23.75;;;;;17.08;86.91;99066.09;5105329;27;45376;-80
2023/05/24 03:59:59;;;;;;;;;28.50;24.00;;;;;17.07;87.01;99075.03;5111617;27;45497;-80
2023/05/24 04:02:24;;;;;;;;;30.50;23.50;;;;;17.04;87.37;99067.25;5105118;27;45441;-81
2023/05/24 04:04:50;;;;;;;;;24.00;23.50;;;;;17.01;86.90;99078.09;5098297;27;46270;-80
2023/05/24 04:07:15;;;;;;;;;27.25;25.00;;;;;16.97;87.46;99082.78;5105040;27;45394;-80
2023/05/24 04:09:41;;;;;;;;;29.50;26.00;;;;;16.94;86.98;99082.97;5101373;27;45450;-81
2023/05/24 04:12:07;;;;;;;;;26.75;25.50;;;;;16.92;87.50;99081.38;5115686;27;45334;-80
2023/05/24 04:14:32;;;;;;;;;25.50;22.75;;;;;16.91;88.16;99082.34;5101204;27;45344;-80
2023/05/24 04:16:58;;;;;;;;;24.50;24.50;;;;;16.89;87.63;99082.44;5115104;27;45446;-82
2023/05/24 04:19:23;;;;;;;;;26.00;25.25;;;;;16.87;88.29;99083.50;5114972;27;45395;-80
2023/05/24 04:21:49;;;;;;;;;25.75;25.00;;;;;16.84;88.45;99086.34;5106105;27;45383;-80
2023/05/24 04:24:15;;;;;;;;;28.50;24.25;;;;;16.84;88.53;99089.03;5108494;27;45402;-80
2023/05/24 04:26:40;;;;;;;;;23.50;22.50;;;;;16.84;88.74;99094.34;5103672;27;45334;-80
2023/05/24 04:29:06;;;;;;;;;28.00;24.00;;;;;16.84;89.13;99092.53;5101340;27;45364;-80
2023/05/24 04:31:33;;;;;;;;;31.00;29.00;;;;;16.82;88.78;99097.09;5105859;27;45429;-80
2023/05/24 04:33:58;;;;;;;;;26.25;25.75;;;;;16.83;88.58;99096.16;5106975;27;46537;-81
2023/05/24 04:36:24;;;;;;;;;26.25;25.00;;;;;16.82;89.25;99101.56;5104752;27;45380;-80
2023/05/24 04:38:52;;;;;;;;;31.25;26.00;;;;;16.80;89.42;99099.00;5101816;27;45464;-81
2023/05/24 04:41:18;;;;;;;;;27.50;24.50;;;;;16.79;89.25;99097.31;5114838;27;45372;-80
2023/05/24 04:43:44;;;;;;;;;19.25;17.25;;;;;16.79;89.81;99099.09;5104880;27;46456;-81
2023/05/24 04:46:09;;;;;;;;;29.75;26.25;;;;;16.81;89.52;99106.03;5109390;27;45424;-80
2023/05/24 04:48:35;;;;;;;;;27.25;26.25;;;;;16.82;89.71;99102.44;5097935;27;45567;-80
2023/05/24 04:51:00;;;;;;;;;29.00;25.25;;;;;16.84;89.19;99105.00;5106850;27;45389;-81
2023/05/24 04:53:26;;;;;;;;;26.50;24.00;;;;;16.85;89.05;99104.03;5102024;27;46654;-81
2023/05/24 04:55:51;;;;;;;;;28.25;25.75;;;;;16.82;90.07;99102.44;5098273;27;45556;-81
2023/05/24 04:58:17;;;;;;;;;26.00;25.75;;;;;16.80;89.80;99099.00;5098158;27;45542;-80
2023/05/24 05:00:43;;;;;;;;;25.25;24.25;;;;;16.79;90.19;99102.63;5106542;27;45417;-80
2023/05/24 05:03:09;;;;;;;;;27.00;22.25;;;;;16.79;90.40;99096.44;5102753;27;46372;-79
2023/05/24 05:05:35;;;;;;;;;33.00;28.50;;;;;16.82;90.66;99107.75;5097986;27;45418;-80
2023/05/24 05:08:01;;;;;;;;;28.00;27.50;;;;;16.83;89.67;99108.59;5111460;27;45308;-81
2023/05/24 05:10:27;;;;;;;;;21.75;20.50;;;;;16.81;90.35;99111.38;5107098;27;45421;-80
2023/05/24 05:12:52;;;;;;;;;29.00;28.50;;;;;16.79;90.65;99102.63;5116849;27;46365;-80
2023/05/24 05:15:21;;;;;;;;;27.50;27.00;;;;;16.81;90.40;99107.84;5109226;27;45470;-81
2023/05/24 05:17:46;;;;;;;;;24.75;22.75;;;;;16.80;89.75;99109.66;5111451;27;45417;-81
2023/05/24 05:20:12;;;;;;;;;32.75;28.75;;;;;16.81;90.10;99103.38;5106765;27;45465;-81
2023/05/24 05:22:37;;;;;;;;;29.75;27.75;;;;;16.82;89.89;99113.06;5118878;27;46122;-81
2023/05/24 05:25:03;;;;;;;;;29.50;25.50;;;;;16.86;90.20;99108.41;5098995;27;45488;-81
2023/05/24 05:27:28;;;;;;;;;23.25;21.00;;;;;16.89;89.93;99109.06;5111288;27;45470;-83
2023/05/24 05:29:54;;;;;;;;;22.00;20.50;;;;;16.92;89.32;99100.88;5105651;27;45485;-81
2023/05/24 05:32:19;;;;;;;;;29.25;28.25;;;;;16.96;89.12;99099.69;5103842;27;45424;-83
2023/05/24 05:34:45;;;;;;;;;28.75;26.00;;;;;17.00;88.94;99103.03;5118307;27;45338;-83
2023/05/24 05:37:10;;;;;;;;;28.75;26.75;;;;;17.05;88.38;99109.75;5104308;27;45493;-83
2023/05/24 05:39:35;;;;;;;;;28.75;28.00;;;;;17.13;87.85;99108.38;5110136;27;45374;-83
2023/05/24 05:42:01;;;;;;;;;26.25;25.00;;;;;17.19;88.05;99106.16;5099480;27;45457;-81
2023/05/24 05:44:27;;;;;;;;;30.00;26.50;;;;;17.29;88.29;99098.38;5097576;27;45388;-81
2023/05/24 05:46:52;;;;;;;;;28.75;28.00;;;;;17.39;87.31;99102.16;5098678;27;45257;-81
2023/05/24 05:49:18;;;;;;;;;30.25;26.00;;;;;17.49;87.89;99103.22;5109193;27;45526;-80
2023/05/24 05:51:44;;;;;;;;;33.00;30.25;;;;;17.63;87.06;99102.25;5109711;27;45401;-80
2023/05/24 05:54:14;;;;;;;;;26.25;25.00;;;;;17.72;87.05;99099.88;5104785;27;45461;-80
2023/05/24 05:56:44;;;;;;;;;21.00;20.25;;;;;17.82;86.45;99105.41;5110190;27;45429;-80
2023/05/24 05:59:14;;;;;;;;;30.25;27.25;;;;;17.88;86.87;99096.13;5105483;27;45241;-81
2023/05/24 06:01:40;;;;;;;;;24.25;22.75;;;;;17.87;84.07;99108.59;5102758;27;45656;-81
2023/05/24 06:04:05;;;;;;;;;26.25;26.25;;;;;17.80;83.56;99104.66;5107378;27;45433;-81
2023/05/24 06:06:31;;;;;;;;;24.25;22.25;;;;;17.69;83.16;99101.88;5109948;27;45313;-81
2023/05/24 06:08:57;;;;;;;;;23.25;23.25;;;;;17.64;82.66;99104.00;5106437;27;45391;-81
2023/05/24 06:11:23;;;;;;;;;29.00;25.75;;;;;17.56;82.51;99111.66;5098817;27;48359;-63
2023/05/24 06:13:48;;;;;;;;;27.00;25.50;;;;;17.53;82.79;99109.19;5103744;27;45413;-63
2023/05/24 06:16:13;;;;;;;;;30.75;24.00;;;;;17.51;83.02;99103.97;5112488;27;45423;-63
2023/05/24 06:18:39;;;;;;;;;24.00;22.25;;;;;17.53;82.43;99103.88;5095176;27;45522;-63
2023/05/24 06:21:05;;;;;;;;;28.25;27.25;;;;;17.51;82.33;99106.63;5107197;27;48118;-63
2023/05/24 06:23:31;;;;;;;;;28.75;28.25;;;;;17.44;82.20;99108.84;5103598;27;45487;-63
2023/05/24 06:25:57;;;;;;;;;30.75;28.25;;;;;17.39;82.72;99107.50;5099217;27;45486;-63
2023/05/24 06:28:23;;;;;;;;;31.50;28.25;;;;;17.38;82.46;99105.78;5102834;27;45545;-63
2023/05/24 06:30:48;;;;;;;;;26.50;23.00;;;;;17.36;82.46;99105.88;5098940;27;45975;-63
2023/05/24 06:33:13;;;;;;;;;27.75;27.75;;;;;17.34;82.90;99106.94;5102878;27;45431;-63
2023/05/24 06:35:39;;;;;;;;;26.50;23.00;;;;;17.34;82.31;99098.94;5109457;27;45818;-63
2023/05/24 06:38:04;;;;;;;;;30.25;30.00;;;;;17.34;82.90;99106.94;5106423;27;45447;-63
2023/05/24 06:40:30;;;;;;;;;30.00;28.25;;;;;17.34;82.46;99106.94;5094296;27;45487;-63
2023/05/24 06:42:57;;;;;;;;;25.75;25.75;;;;;17.33;82.21;99115.88;5094370;27;45412;-63
2023/05/24 06:45:23;;;;;;;;;26.75;25.75;;;;;17.32;82.06;99116.84;5094300;27;45355;-63
2023/05/24 06:47:48;;;;;;;;;28.00;27.50;;;;;17.34;82.18;99117.59;5102861;27;45434;-63
2023/05/24 06:50:13;;;;;;;;;26.00;25.00;;;;;17.36;82.39;99113.03;5098673;27;46587;-62
2023/05/24 06:52:39;;;;;;;;;25.00;25.00;;;;;17.37;82.43;99125.38;5095004;27;45377;-63
2023/05/24 06:55:04;;;;;;;;;25.75;22.50;;;;;17.41;82.06;99116.22;5095279;27;45960;-63
2023/05/24 06:57:30;;;;;;;;;30.00;25.75;;;;;17.42;81.37;99117.94;5094731;27;45439;-63
2023/05/24 06:59:56;;;;;;;;;27.25;25.50;;;;;17.41;81.59;99119.75;5093882;27;46055;-63
2023/05/24 07:02:25;;;;;;;;;30.50;30.00;;;;;17.40;81.66;99112.72;5102203;27;45444;-63
2023/05/24 07:04:51;;;;;;;;;28.25;26.25;;;;;17.40;81.99;99115.38;5097606;27;45512;-63
2023/05/24 07:07:17;;;;;;;;;28.00;26.00;;;;;17.43;81.85;99114.28;5103272;27;45404;-63
2023/05/24 07:09:43;;;;;;;;;29.75;27.00;;;;;17.43;81.46;99120.47;5097743;27;45430;-63
2023/05/24 07:12:09;;;;;;;;;27.25;27.25;;;;;17.43;81.56;99130.28;5094805;27;45497;-63
2023/05/24 07:14:34;;;;;;;;;32.50;32.00;;;;;17.37;81.06;99136.91;5094223;27;45373;-63
2023/05/24 07:16:59;;;;;;;;;26.00;24.50;;;;;17.29;80.34;99133.88;5094442;27;45350;-62
2023/05/24 07:19:27;;;;;;;;;27.75;22.50;;;;;17.21;81.25;99135.38;5094509;27;46085;-63
2023/05/24 07:21:55;;;;;;;;;31.50;27.75;;;;;17.17;81.40;99136.53;5094750;27;45462;-63
2023/05/24 07:24:21;;;;;;;;;24.50;23.25;;;;;17.14;81.58;99137.59;5094905;27;45543;-63
2023/05/24 07:26:47;;;;;;;;;29.75;28.75;;;;;17.10;82.05;99134.25;5094423;27;45386;-63
2023/05/24 07:29:12;;;;;;;;;28.25;24.25;;;;;17.09;82.24;99134.41;5093489;27;45375;-64
2023/05/24 07:31:38;;;;;;;;;31.50;30.00;;;;;17.06;81.96;99135.44;5094325;27;45413;-64
2023/05/24 07:34:03;;;;;;;;;27.25;26.25;;;;;17.06;82.13;99143.44;5094530;27;45400;-64
2023/05/24 07:36:31;;;;;;;;;22.00;22.00;;;;;17.04;81.84;99142.69;5104008;27;45388;-64
2023/05/24 07:38:56;;;;;;;;;28.50;26.00;;;;;17.01;82.11;99152.66;5097477;27;45476;-64
2023/05/24 07:41:25;;;;;;;;;28.75;26.25;;;;;17.02;82.31;99154.38;5103195;27;45549;-64
2023/05/24 07:43:51;;;;;;;;;26.50;23.75;;;;;17.01;81.68;99155.34;5097383;27;45473;-64
2023/05/24 07:46:16;;;;;;;;;25.75;24.00;;;;;17.00;81.69;99151.81;5094866;27;45300;-64
2023/05/24 07:48:41;;;;;;;;;28.75;25.25;;;;;17.01;81.90;99155.34;5094063;27;45367;-64
2023/05/24 07:51:07;;;;;;;;;28.50;24.25;;;;;17.03;81.82;99172.06;5094253;27;45338;-64
2023/05/24 07:53:33;;;;;;;;;32.50;27.75;;;;;17.02;82.07;99160.56;5094525;27;45366;-63
2023/05/24 07:55:59;;;;;;;;;26.75;23.75;;;;;17.04;81.52;99155.13;5103256;27;45602;-64
2023/05/24 07:58:25;;;;;;;;;33.00;31.00;;;;;17.04;81.75;99176.44;5097026;27;45450;-64
2023/05/24 08:00:51;;;;;;;;;33.50;27.75;;;;;17.06;81.77;99155.91;5099523;27;45409;-63
2023/05/24 08:03:17;;;;;;;;;28.25;28.25;;;;;17.09;81.49;99159.19;5109787;27;45486;-63
2023/05/24 08:05:42;;;;;;;;;24.25;23.25;;;;;17.14;81.37;99150.03;5115026;27;45615;-63
2023/05/24 08:08:08;;;;;;;;;27.25;26.75;;;;;17.18;81.41;99156.88;5114455;27;45420;-63
2023/05/24 08:10:33;;;;;;;;;26.75;25.50;;;;;17.22;81.15;99169.06;5113054;27;45587;-64
2023/05/24 08:12:59;;;;;;;;;33.00;31.00;;;;;17.24;80.46;99148.50;5114389;27;45463;-63
2023/05/24 08:15:24;;;;;;;;;25.00;24.25;;;;;17.26;80.98;99162.56;5112270;27;45612;-63
2023/05/24 08:17:50;;;;;;;;;26.75;25.75;;;;;17.26;80.59;99160.72;5116584;27;46457;-63
2023/05/24 08:20:16;;;;;;;;;29.00;25.50;;;;;17.28;80.72;99161.50;5118000;27;45459;-63
2023/05/24 08:22:42;;;;;;;;;28.25;26.25;;;;;17.33;80.59;99169.19;5118177;27;45496;-63
2023/05/24 08:25:08;;;;;;;;;26.25;24.75;;;;;17.36;80.26;99148.53;5118344;27;45571;-63
2023/05/24 08:27:34;;;;;;;;;25.75;24.50;;;;;17.41;80.17;99156.22;5118146;27;45540;-63
2023/05/24 08:29:59;;;;;;;;;25.50;23.00;;;;;17.45;79.99;99166.53;5118099;27;45326;-63
2023/05/24 08:32:25;;;;;;;;;26.00;23.00;;;;;17.49;79.85;99159.19;5117936;27;45487;-63
2023/05/24 08:34:51;;;;;;;;;29.25;26.25;;;;;17.53;79.78;99159.84;5117733;27;45527;-64
2023/05/24 08:37:19;;;;;;;;;27.50;25.75;;;;;17.59;79.78;99152.31;5101827;27;46317;-63
2023/05/24 08:39:45;;;;;;;;;32.25;26.50;;;;;17.68;79.88;99161.50;5097884;27;45478;-65
2023/05/24 08:42:10;;;;;;;;;18.25;16.25;;;;;17.76;78.92;99153.84;5112843;27;45447;-63
2023/05/24 08:45:07;;;;;;;;;25.75;23.50;;;;;17.86;79.08;99162.06;5117732;27;45544;-63
2023/05/24 08:47:34;;;;;;;;;26.00;23.25;;;;;17.98;79.10;99154.03;5105796;27;46204;-64
2023/05/24 08:50:00;;;;;;;;;24.50;22.75;;;;;18.11;78.79;99154.88;5096795;27;45483;-64
2023/05/24 08:52:27;;;;;;;;;26.00;23.75;;;;;18.21;77.29;99151.59;5097666;27;45451;-63
2023/05/24 08:54:53;;;;;;;;;21.50;19.75;;;;;18.28;77.10;99156.38;5097199;27;45511;-64
2023/05/24 08:57:20;;;;;;;;;23.50;22.75;;;;;18.32;76.20;99157.84;5096784;27;46295;-63
2023/05/24 08:59:45;;;;;;;;;27.00;22.00;;;;;18.37;75.88;99155.72;5109406;27;45461;-63
2023/05/24 09:02:14;;;;;;;;;20.00;18.00;;;;;18.40;76.36;99163.53;5097305;27;45391;-64
2023/05/24 09:04:43;;;;;;;;;24.50;21.00;;;;;18.42;75.25;99171.41;5097636;27;45429;-63
2023/05/24 09:07:11;;;;;;;;;28.75;25.50;;;;;18.45;75.95;99168.50;5096950;27;45543;-64
2023/05/24 09:09:46;;;;;;;;;21.25;20.00;;;;;18.49;75.24;99165.50;5109563;27;45468;-64
2023/05/24 09:12:16;;;;;;;;;26.75;25.25;;;;;18.54;75.35;99167.88;5097436;27;45297;-64
2023/05/24 09:14:46;;;;;;;;;26.00;20.50;;;;;18.61;75.06;99178.97;5095810;27;45573;-63
2023/05/24 09:17:15;;;;;;;;;22.25;19.00;;;;;18.60;75.01;99175.44;5096735;27;45452;-63
2023/05/24 09:19:45;;;;;;;;;22.75;20.00;;;;;18.56;74.83;99173.09;5096680;27;45716;-63
2023/05/24 09:22:15;;;;;;;;;25.75;23.75;;;;;18.51;75.47;99165.41;5097273;27;45439;-63
2023/05/24 09:24:51;;;;;;;;;19.50;19.50;;;;;18.48;75.32;99171.81;5096986;27;45487;-63
2023/05/24 09:27:20;;;;;;;;;24.25;23.00;;;;;18.47;75.42;99172.78;5096475;27;45455;-63
2023/05/24 09:29:47;;;;;;;;;21.00;20.60;;;;;18.51;75.76;99167.22;5096695;27;45516;-63
2023/05/24 09:32:13;;;;;;;;;21.75;19.75;;;;;18.57;74.85;99173.00;5097707;27;45397;-63
2023/05/24 09:34:40;;;;;;;;;29.50;26.50;;;;;18.57;74.65;99161.44;5109405;27;45543;-63
2023/05/24 09:37:18;;;;;;;;;25.00;23.50;;;;;18.58;74.92;99168.50;5096365;27;48451;-63
2023/05/24 09:39:49;;;;;;;;;17.50;17.50;;;;;18.60;74.17;99162.09;5117018;27;45413;-64
2023/05/24 09:42:16;;;;;;;;;19.75;17.75;;;;;18.55;74.39;99160.72;5099835;27;45461;-65
2023/05/24 09:44:43;;;;;;;;;30.50;28.25;;;;;18.53;74.14;99166.16;5096397;27;45434;-62
2023/05/24 09:47:08;;;;;;;;;24.50;21.50;;;;;18.50;74.71;99171.72;5095948;27;45426;-63
2023/05/24 09:49:37;;;;;;;;;16.50;16.00;;;;;18.48;74.18;99177.16;5096040;27;45438;-62
2023/05/24 09:52:03;;;;;;;;;20.50;19.25;;;;;18.48;73.64;99171.81;5111847;27;45467;-65
2023/05/24 09:54:31;;;;;;;;;24.50;22.50;;;;;18.47;73.98;99163.91;5105710;27;45383;-65
2023/05/24 09:57:00;;;;;;;;;25.75;24.00;;;;;18.48;73.01;99189.66;5111677;27;45651;-63
2023/05/24 09:59:26;;;;;;;;;31.25;27.50;;;;;18.44;73.63;99161.47;5114771;27;45600;-63
2023/05/24 10:02:05;;;;;;;;;28.50;24.00;;;;;18.46;73.88;99170.22;5098160;27;45498;-63
2023/05/24 10:04:34;;;;;;;;;26.00;24.75;;;;;18.45;73.42;99169.34;5095635;27;45672;-63
2023/05/24 10:07:01;;;;;;;;;23.50;20.75;;;;;18.45;73.88;99181.84;5096024;27;45515;-63
2023/05/24 10:09:32;;;;;;;;;27.50;25.75;;;;;18.47;73.22;99159.44;5095869;27;45398;-63
2023/05/24 10:12:05;;;;;;;;;27.50;24.50;;;;;18.51;73.39;99172.56;5095976;27;45455;-63
2023/05/24 10:14:34;;;;;;;;;21.50;19.50;;;;;18.53;74.05;99176.84;5107628;27;45351;-63
2023/05/24 10:17:00;;;;;;;;;30.75;28.00;;;;;18.59;72.68;99170.25;5095493;27;45436;-64
2023/05/24 10:19:26;;;;;;;;;25.50;24.00;;;;;18.63;73.12;99179.72;5096027;27;45436;-64
2023/05/24 10:21:53;;;;;;;;;27.00;24.75;;;;;18.66;72.88;99187.50;5095942;27;45685;-63
2023/05/24 10:24:24;;;;;;;;;22.00;20.25;;;;;18.64;72.59;99179.59;5094757;27;45496;-63
2023/05/24 10:26:51;;;;;;;;;23.25;20.25;;;;;18.62;73.04;99173.53;5095998;27;45747;-64
2023/05/24 10:29:26;;;;;;;;;20.50;20.50;;;;;18.65;73.06;99170.63;5094772;27;45367;-64
2023/05/24 10:31:53;;;;;;;;;26.00;25.50;;;;;18.70;73.03;99189.00;5106222;27;45466;-65
2023/05/24 10:34:19;;;;;;;;;25.25;25.25;;;;;18.70;72.64;99162.28;5097653;27;45537;-64
2023/05/24 10:36:45;;;;;;;;;28.75;27.00;;;;;18.70;72.63;99171.16;5095619;27;45425;-64
2023/05/24 10:39:11;;;;;;;;;25.25;24.50;;;;;18.73;72.50;99173.63;5094314;27;45572;-65
2023/05/24 10:41:40;;;;;;;;;18.75;18.25;;;;;18.75;71.98;99173.50;5095639;27;45407;-64
2023/05/24 10:44:11;;;;;;;;;26.00;25.50;;;;;18.76;72.44;99175.22;5095542;27;45634;-64
2023/05/24 10:47:09;;;;;;;;;19.00;18.00;;;;;18.78;72.34;99183.94;5095690;27;46246;-65
2023/05/24 10:49:36;;;;;;;;;17.25;17.00;;;;;18.78;72.48;99173.25;5095734;27;45503;-64
2023/05/24 10:52:07;;;;;;;;;22.75;22.00;;;;;18.77;72.00;99166.22;5111708;27;45404;-64
2023/05/24 10:54:32;;;;;;;;;30.75;29.00;;;;;18.78;71.80;99173.25;5102052;27;45481;-63
2023/05/24 10:57:03;;;;;;;;;23.75;19.00;;;;;18.82;71.57;99161.41;5094994;27;45579;-64
2023/05/24 10:59:36;;;;;;;;;26.75;24.50;;;;;18.90;70.71;99172.38;5094614;27;45372;-63
2023/05/24 11:02:05;;;;;;;;;19.00;17.75;;;;;18.86;71.38;99170.91;5094869;27;45444;-64
2023/05/24 11:04:36;;;;;;;;;24.00;21.50;;;;;18.86;71.55;99162.88;5107228;27;45266;-63
2023/05/24 11:07:04;;;;;;;;;19.50;19.25;;;;;18.87;71.52;99159.25;5107373;27;46332;-64
2023/05/24 11:09:31;;;;;;;;;27.00;24.00;;;;;18.90;71.14;99175.06;5093997;27;45508;-63
2023/05/24 11:12:02;;;;;;;;;24.00;20.50;;;;;18.93;72.18;99166.81;5095380;27;45581;-64
2023/05/24 11:14:30;;;;;;;;;24.75;21.00;;;;;18.96;71.54;99163.91;5094129;27;45367;-64
2023/05/24 11:16:56;;;;;;;;;28.00;22.25;;;;;18.96;71.36;99160.38;5094697;27;45551;-63
2023/05/24 11:19:23;;;;;;;;;27.25;25.25;;;;;18.89;71.26;99161.81;5094403;27;45494;-63